Belle Plain, Colorado
Current Conditions -  °F | °C
As of 9:53 AM on Saturday 25 Oct 2014 (Local Time) from KPUB Reporting Station
Clear Clear  
Wind Chill: 65°   Ceiling: Unl
Heat Index: 65°   Visibility: 10mi
Dew Point: 26°   Wind: 10mph
Humidity: 23%   Direction: 260°W
Pressure: 30.21"   Gusts: NA
Location:  38.2964°N, 104.538°W
Report Text: KPUB 251553Z AUTO 26009KT 10SM CLR 18/M03 A3021 RMK AO2 SLP192 T01831033
Loading
Personal Weather Stations






























Interactive Weather Map
Tropical Storm Tracking
New forecast layout! Learn more

10-Day Weather Forecast

Advertisements
Track Severe Weather on mobile